Sunset Valley, Texas
Current Conditions -  °F | °C
As of 2:53 PM on Friday 24 Oct 2014 (Local Time) from KAUS Reporting Station
Few Clouds Few Clouds  
Wind Chill: 83°   Ceiling: Unl
Heat Index: 83°   Visibility: 10mi
Dew Point: 61°   Wind: 0mph
Humidity: 47%   Direction: NA
Pressure: 30.1"   Gusts: NA
Location:  30.2064°N, 97.7973°W
Report Text: KAUS 241953Z 00000KT 10SM FEW050 FEW150 28/16 A3010 RMK AO2 SLP185 T02830161
Loading
Personal Weather Stations






























Interactive Weather Map
Tropical Storm Tracking
New forecast layout! Learn more

10-Day Weather Forecast

Advertisements
Track Severe Weather on mobile